sensor_id;sensor_type;location;lat;lon;timestamp;pressure;altitude;pressure_sealevel;temperature;humidity
58385;BME280;44185;47.844;8.966;2023-05-02T00:00:35;96319.75;;;8.03;100.00
58385;BME280;44185;47.844;8.966;2023-05-02T00:03:01;96323.97;;;8.06;100.00
58385;BME280;44185;47.844;8.966;2023-05-02T00:05:28;96317.28;;;7.88;100.00
58385;BME280;44185;47.844;8.966;2023-05-02T00:07:53;96315.44;;;8.02;100.00
58385;BME280;44185;47.844;8.966;2023-05-02T00:10:20;96312.19;;;7.98;100.00
58385;BME280;44185;47.844;8.966;2023-05-02T00:12:46;96306.31;;;7.95;100.00
58385;BME280;44185;47.844;8.966;2023-05-02T00:15:11;96309.06;;;7.93;100.00
58385;BME280;44185;47.844;8.966;2023-05-02T00:17:39;96310.06;;;7.79;100.00
58385;BME280;44185;47.844;8.966;2023-05-02T00:20:05;96306.31;;;7.70;100.00
58385;BME280;44185;47.844;8.966;2023-05-02T00:22:31;96306.78;;;7.64;100.00
58385;BME280;44185;47.844;8.966;2023-05-02T00:24:56;96296.91;;;7.54;100.00
58385;BME280;44185;47.844;8.966;2023-05-02T00:27:23;96296.91;;;7.54;100.00
58385;BME280;44185;47.844;8.966;2023-05-02T00:29:49;96297.38;;;7.48;100.00
58385;BME280;44185;47.844;8.966;2023-05-02T00:32:14;96291.53;;;7.56;100.00
58385;BME280;44185;47.844;8.966;2023-05-02T00:34:40;96290.91;;;7.52;100.00
58385;BME280;44185;47.844;8.966;2023-05-02T00:37:05;96288.72;;;7.46;100.00
58385;BME280;44185;47.844;8.966;2023-05-02T00:39:31;96293.16;;;7.45;100.00
58385;BME280;44185;47.844;8.966;2023-05-02T00:41:56;96295.91;;;7.44;100.00
58385;BME280;44185;47.844;8.966;2023-05-02T00:44:23;96285.91;;;7.36;100.00
58385;BME280;44185;47.844;8.966;2023-05-02T00:46:49;96285.91;;;7.36;100.00
58385;BME280;44185;47.844;8.966;2023-05-02T00:49:14;96291.31;;;7.34;100.00
58385;BME280;44185;47.844;8.966;2023-05-02T00:51:40;96285.19;;;7.34;100.00
58385;BME280;44185;47.844;8.966;2023-05-02T00:54:05;96285.06;;;7.36;100.00
58385;BME280;44185;47.844;8.966;2023-05-02T00:56:31;96281.72;;;7.33;100.00
58385;BME280;44185;47.844;8.966;2023-05-02T00:58:57;96286.00;;;7.48;100.00
58385;BME280;44185;47.844;8.966;2023-05-02T01:01:34;96286.13;;;7.33;100.00
58385;BME280;44185;47.844;8.966;2023-05-02T01:04:10;96285.75;;;7.26;100.00
58385;BME280;44185;47.844;8.966;2023-05-02T01:06:51;96292.75;;;7.39;100.00
58385;BME280;44185;47.844;8.966;2023-05-02T01:09:28;96294.31;;;7.41;100.00
58385;BME280;44185;47.844;8.966;2023-05-02T01:12:00;96296.88;;;7.43;100.00
58385;BME280;44185;47.844;8.966;2023-05-02T01:14:28;96292.66;;;7.40;100.00
58385;BME280;44185;47.844;8.966;2023-05-02T01:16:56;96285.28;;;7.08;100.00
58385;BME280;44185;47.844;8.966;2023-05-02T01:19:28;96301.38;;;7.16;100.00
58385;BME280;44185;47.844;8.966;2023-05-02T01:21:56;96294.28;;;7.17;100.00
58385;BME280;44185;47.844;8.966;2023-05-02T01:24:25;96305.50;;;7.07;100.00
58385;BME280;44185;47.844;8.966;2023-05-02T01:27:00;96305.31;;;7.22;100.00
58385;BME280;44185;47.844;8.966;2023-05-02T01:29:34;96302.09;;;7.18;100.00
58385;BME280;44185;47.844;8.966;2023-05-02T01:32:03;96309.47;;;7.13;100.00
58385;BME280;44185;47.844;8.966;2023-05-02T01:34:31;96302.47;;;7.25;100.00
58385;BME280;44185;47.844;8.966;2023-05-02T01:36:58;96302.81;;;7.20;100.00
58385;BME280;44185;47.844;8.966;2023-05-02T01:39:25;96304.06;;;7.28;100.00
58385;BME280;44185;47.844;8.966;2023-05-02T01:41:54;96313.44;;;7.32;100.00
58385;BME280;44185;47.844;8.966;2023-05-02T01:44:21;96320.34;;;7.33;100.00
58385;BME280;44185;47.844;8.966;2023-05-02T01:46:50;96319.09;;;7.39;100.00
58385;BME280;44185;47.844;8.966;2023-05-02T01:49:18;96327.44;;;7.32;100.00
58385;BME280;44185;47.844;8.966;2023-05-02T01:51:46;96317.41;;;7.38;100.00
58385;BME280;44185;47.844;8.966;2023-05-02T01:54:12;96322.13;;;7.45;100.00
58385;BME280;44185;47.844;8.966;2023-05-02T01:56:39;96321.72;;;7.39;100.00
58385;BME280;44185;47.844;8.966;2023-05-02T01:59:07;96322.91;;;7.34;100.00
58385;BME280;44185;47.844;8.966;2023-05-02T02:01:34;96317.59;;;7.48;100.00
58385;BME280;44185;47.844;8.966;2023-05-02T02:04:03;96322.72;;;7.49;100.00
58385;BME280;44185;47.844;8.966;2023-05-02T02:06:30;96325.16;;;7.52;100.00
58385;BME280;44185;47.844;8.966;2023-05-02T02:08:55;96321.06;;;7.48;100.00
58385;BME280;44185;47.844;8.966;2023-05-02T02:11:25;96333.91;;;7.53;100.00
58385;BME280;44185;47.844;8.966;2023-05-02T02:13:54;96329.13;;;7.58;100.00
58385;BME280;44185;47.844;8.966;2023-05-02T02:16:24;96330.72;;;7.61;100.00
58385;BME280;44185;47.844;8.966;2023-05-02T02:18:54;96332.63;;;7.59;100.00
58385;BME280;44185;47.844;8.966;2023-05-02T02:21:22;96332.38;;;7.62;100.00
58385;BME280;44185;47.844;8.966;2023-05-02T02:23:52;96331.22;;;7.66;100.00
58385;BME280;44185;47.844;8.966;2023-05-02T02:26:21;96335.28;;;7.70;100.00
58385;BME280;44185;47.844;8.966;2023-05-02T02:28:47;96329.75;;;7.62;100.00
58385;BME280;44185;47.844;8.966;2023-05-02T02:31:12;96329.84;;;7.60;100.00
58385;BME280;44185;47.844;8.966;2023-05-02T02:33:39;96329.94;;;7.72;100.00
58385;BME280;44185;47.844;8.966;2023-05-02T02:36:08;96340.63;;;7.82;100.00
58385;BME280;44185;47.844;8.966;2023-05-02T02:38:42;96343.97;;;7.84;100.00
58385;BME280;44185;47.844;8.966;2023-05-02T02:41:13;96339.34;;;7.87;100.00
58385;BME280;44185;47.844;8.966;2023-05-02T02:43:47;96344.09;;;7.82;100.00
58385;BME280;44185;47.844;8.966;2023-05-02T02:46:28;96333.78;;;7.79;100.00
58385;BME280;44185;47.844;8.966;2023-05-02T02:49:12;96340.13;;;7.76;100.00
58385;BME280;44185;47.844;8.966;2023-05-02T02:51:44;96338.91;;;7.69;100.00
58385;BME280;44185;47.844;8.966;2023-05-02T02:54:18;96342.97;;;7.73;100.00
58385;BME280;44185;47.844;8.966;2023-05-02T02:56:48;96345.72;;;7.72;100.00
58385;BME280;44185;47.844;8.966;2023-05-02T02:59:27;96339.75;;;7.70;100.00
58385;BME280;44185;47.844;8.966;2023-05-02T03:01:58;96345.59;;;7.73;100.00
58385;BME280;44185;47.844;8.966;2023-05-02T03:04:25;96350.53;;;7.78;100.00
58385;BME280;44185;47.844;8.966;2023-05-02T03:06:52;96345.59;;;7.73;100.00
58385;BME280;44185;47.844;8.966;2023-05-02T03:09:19;96345.81;;;7.70;100.00
58385;BME280;44185;47.844;8.966;2023-05-02T03:11:44;96338.69;;;7.72;100.00
58385;BME280;44185;47.844;8.966;2023-05-02T03:14:10;96344.16;;;7.69;100.00
58385;BME280;44185;47.844;8.966;2023-05-02T03:16:36;96350.78;;;7.75;100.00
58385;BME280;44185;47.844;8.966;2023-05-02T03:19:02;96347.81;;;7.79;100.00
58385;BME280;44185;47.844;8.966;2023-05-02T03:21:28;96348.59;;;7.68;100.00
58385;BME280;44185;47.844;8.966;2023-05-02T03:23:54;96344.25;;;7.67;100.00
58385;BME280;44185;47.844;8.966;2023-05-02T03:26:21;96347.09;;;7.64;100.00
58385;BME280;44185;47.844;8.966;2023-05-02T03:28:47;96355.84;;;7.65;100.00
58385;BME280;44185;47.844;8.966;2023-05-02T03:31:12;96350.72;;;7.63;100.00
58385;BME280;44185;47.844;8.966;2023-05-02T03:33:38;96349.75;;;7.64;100.00
58385;BME280;44185;47.844;8.966;2023-05-02T03:36:04;96358.81;;;7.60;100.00
58385;BME280;44185;47.844;8.966;2023-05-02T03:38:29;96356.63;;;7.54;100.00
58385;BME280;44185;47.844;8.966;2023-05-02T03:40:55;96364.53;;;7.54;100.00
58385;BME280;44185;47.844;8.966;2023-05-02T03:43:22;96362.53;;;7.57;100.00
58385;BME280;44185;47.844;8.966;2023-05-02T03:45:48;96369.25;;;7.62;100.00
58385;BME280;44185;47.844;8.966;2023-05-02T03:48:13;96362.97;;;7.51;100.00
58385;BME280;44185;47.844;8.966;2023-05-02T03:50:38;96370.22;;;7.61;100.00
58385;BME280;44185;47.844;8.966;2023-05-02T03:53:04;96370.94;;;7.63;100.00
58385;BME280;44185;47.844;8.966;2023-05-02T03:55:29;96369.78;;;7.67;100.00
58385;BME280;44185;47.844;8.966;2023-05-02T03:57:55;96374.00;;;7.56;100.00
58385;BME280;44185;47.844;8.966;2023-05-02T04:00:22;96377.31;;;7.47;100.00
58385;BME280;44185;47.844;8.966;2023-05-02T04:02:47;96379.44;;;7.42;100.00
58385;BME280;44185;47.844;8.966;2023-05-02T04:05:13;96383.75;;;7.43;100.00
58385;BME280;44185;47.844;8.966;2023-05-02T04:07:38;96386.81;;;7.37;100.00
58385;BME280;44185;47.844;8.966;2023-05-02T04:10:05;96384.38;;;7.33;100.00
58385;BME280;44185;47.844;8.966;2023-05-02T04:12:30;96382.91;;;7.42;100.00
58385;BME280;44185;47.844;8.966;2023-05-02T04:14:55;96389.41;;;7.50;100.00
58385;BME280;44185;47.844;8.966;2023-05-02T04:17:22;96402.38;;;7.53;100.00
58385;BME280;44185;47.844;8.966;2023-05-02T04:19:48;96396.38;;;7.51;100.00
58385;BME280;44185;47.844;8.966;2023-05-02T04:22:13;96395.78;;;7.34;100.00
58385;BME280;44185;47.844;8.966;2023-05-02T04:24:39;96397.03;;;7.28;100.00
58385;BME280;44185;47.844;8.966;2023-05-02T04:27:04;96394.22;;;7.18;100.00
58385;BME280;44185;47.844;8.966;2023-05-02T04:29:29;96396.53;;;7.23;100.00
58385;BME280;44185;47.844;8.966;2023-05-02T04:31:55;96394.22;;;7.05;100.00
58385;BME280;44185;47.844;8.966;2023-05-02T04:34:22;96397.81;;;6.91;100.00
58385;BME280;44185;47.844;8.966;2023-05-02T04:36:47;96403.69;;;7.08;100.00
58385;BME280;44185;47.844;8.966;2023-05-02T04:39:12;96417.59;;;7.10;100.00
58385;BME280;44185;47.844;8.966;2023-05-02T04:41:38;96412.72;;;7.04;100.00
58385;BME280;44185;47.844;8.966;2023-05-02T04:44:04;96419.03;;;7.14;100.00
58385;BME280;44185;47.844;8.966;2023-05-02T04:46:29;96425.47;;;7.23;100.00
58385;BME280;44185;47.844;8.966;2023-05-02T04:48:55;96429.56;;;7.14;100.00
58385;BME280;44185;47.844;8.966;2023-05-02T04:51:21;96438.84;;;7.20;100.00
58385;BME280;44185;47.844;8.966;2023-05-02T04:53:48;96446.41;;;7.11;100.00
58385;BME280;44185;47.844;8.966;2023-05-02T04:56:13;96441.78;;;7.02;100.00
58385;BME280;44185;47.844;8.966;2023-05-02T04:58:38;96448.75;;;7.03;100.00
58385;BME280;44185;47.844;8.966;2023-05-02T05:01:04;96449.69;;;7.15;100.00
58385;BME280;44185;47.844;8.966;2023-05-02T05:03:29;96453.25;;;7.27;100.00
58385;BME280;44185;47.844;8.966;2023-05-02T05:05:55;96453.03;;;7.30;100.00
58385;BME280;44185;47.844;8.966;2023-05-02T05:08:22;96456.72;;;7.28;100.00
58385;BME280;44185;47.844;8.966;2023-05-02T05:10:47;96459.91;;;7.20;100.00
58385;BME280;44185;47.844;8.966;2023-05-02T05:13:13;96462.00;;;7.15;100.00
58385;BME280;44185;47.844;8.966;2023-05-02T05:15:38;96464.84;;;7.11;100.00
58385;BME280;44185;47.844;8.966;2023-05-02T05:18:04;96477.69;;;7.03;100.00
58385;BME280;44185;47.844;8.966;2023-05-02T05:20:29;96475.16;;;7.15;100.00
58385;BME280;44185;47.844;8.966;2023-05-02T05:22:55;96477.59;;;7.18;100.00
58385;BME280;44185;47.844;8.966;2023-05-02T05:25:21;96468.84;;;7.17;100.00
58385;BME280;44185;47.844;8.966;2023-05-02T05:27:47;96478.00;;;7.25;100.00
58385;BME280;44185;47.844;8.966;2023-05-02T05:30:12;96475.81;;;7.31;100.00
58385;BME280;44185;47.844;8.966;2023-05-02T05:32:38;96474.94;;;7.31;100.00
58385;BME280;44185;47.844;8.966;2023-05-02T05:35:04;96471.25;;;7.47;100.00
58385;BME280;44185;47.844;8.966;2023-05-02T05:37:29;96474.41;;;7.52;100.00
58385;BME280;44185;47.844;8.966;2023-05-02T05:39:55;96480.72;;;7.49;100.00
58385;BME280;44185;47.844;8.966;2023-05-02T05:42:21;96479.88;;;7.62;100.00
58385;BME280;44185;47.844;8.966;2023-05-02T05:44:47;96490.53;;;7.60;100.00
58385;BME280;44185;47.844;8.966;2023-05-02T05:47:18;96488.94;;;7.57;100.00
58385;BME280;44185;47.844;8.966;2023-05-02T05:49:43;96486.63;;;7.66;100.00
58385;BME280;44185;47.844;8.966;2023-05-02T05:52:09;96495.16;;;7.70;100.00
58385;BME280;44185;47.844;8.966;2023-05-02T05:54:34;96498.69;;;7.82;100.00
58385;BME280;44185;47.844;8.966;2023-05-02T05:56:59;96494.38;;;7.81;100.00
58385;BME280;44185;47.844;8.966;2023-05-02T05:59:26;96497.94;;;7.93;100.00
58385;BME280;44185;47.844;8.966;2023-05-02T06:01:52;96504.06;;;7.93;100.00
58385;BME280;44185;47.844;8.966;2023-05-02T06:04:17;96498.38;;;7.86;100.00
58385;BME280;44185;47.844;8.966;2023-05-02T06:06:42;96501.34;;;7.82;100.00
58385;BME280;44185;47.844;8.966;2023-05-02T06:09:08;96504.91;;;7.81;100.00
58385;BME280;44185;47.844;8.966;2023-05-02T06:11:35;96510.16;;;7.94;100.00
58385;BME280;44185;47.844;8.966;2023-05-02T06:14:01;96509.50;;;8.03;100.00
58385;BME280;44185;47.844;8.966;2023-05-02T06:16:27;96506.56;;;7.95;100.00
58385;BME280;44185;47.844;8.966;2023-05-02T06:18:53;96504.34;;;8.01;100.00
58385;BME280;44185;47.844;8.966;2023-05-02T06:21:18;96502.06;;;8.21;100.00
58385;BME280;44185;47.844;8.966;2023-05-02T06:23:44;96510.09;;;8.20;100.00
58385;BME280;44185;47.844;8.966;2023-05-02T06:26:09;96509.84;;;8.23;100.00
58385;BME280;44185;47.844;8.966;2023-05-02T06:28:35;96509.78;;;8.25;100.00
58385;BME280;44185;47.844;8.966;2023-05-02T06:31:02;96511.50;;;8.37;100.00
58385;BME280;44185;47.844;8.966;2023-05-02T06:33:31;96515.38;;;8.44;100.00
58385;BME280;44185;47.844;8.966;2023-05-02T06:35:57;96515.25;;;8.59;100.00
58385;BME280;44185;47.844;8.966;2023-05-02T06:38:23;96518.47;;;8.63;100.00
58385;BME280;44185;47.844;8.966;2023-05-02T06:40:49;96521.53;;;8.70;100.00
58385;BME280;44185;47.844;8.966;2023-05-02T06:43:15;96524.16;;;8.94;100.00
58385;BME280;44185;47.844;8.966;2023-05-02T06:45:41;96531.63;;;9.12;100.00
58385;BME280;44185;47.844;8.966;2023-05-02T06:48:07;96530.59;;;9.26;100.00
58385;BME280;44185;47.844;8.966;2023-05-02T06:50:34;96541.03;;;9.28;100.00
58385;BME280;44185;47.844;8.966;2023-05-02T06:53:00;96537.19;;;9.20;100.00
58385;BME280;44185;47.844;8.966;2023-05-02T06:55:25;96533.94;;;8.92;100.00
58385;BME280;44185;47.844;8.966;2023-05-02T06:57:51;96538.22;;;9.06;100.00
58385;BME280;44185;47.844;8.966;2023-05-02T07:00:18;96537.91;;;9.22;100.00
58385;BME280;44185;47.844;8.966;2023-05-02T07:02:44;96552.81;;;9.35;100.00
58385;BME280;44185;47.844;8.966;2023-05-02T07:05:10;96545.00;;;9.33;100.00
58385;BME280;44185;47.844;8.966;2023-05-02T07:07:37;96544.28;;;9.31;100.00
58385;BME280;44185;47.844;8.966;2023-05-02T07:10:03;96544.19;;;8.97;100.00
58385;BME280;44185;47.844;8.966;2023-05-02T07:12:29;96552.13;;;9.08;100.00
58385;BME280;44185;47.844;8.966;2023-05-02T07:14:54;96547.84;;;9.19;100.00
58385;BME280;44185;47.844;8.966;2023-05-02T07:17:19;96557.22;;;9.34;100.00
58385;BME280;44185;47.844;8.966;2023-05-02T07:19:45;96555.34;;;9.48;100.00
58385;BME280;44185;47.844;8.966;2023-05-02T07:22:10;96556.41;;;9.45;100.00
58385;BME280;44185;47.844;8.966;2023-05-02T07:24:39;96561.22;;;9.40;100.00
58385;BME280;44185;47.844;8.966;2023-05-02T07:27:04;96563.66;;;9.55;100.00
58385;BME280;44185;47.844;8.966;2023-05-02T07:29:30;96562.34;;;9.61;100.00
58385;BME280;44185;47.844;8.966;2023-05-02T07:31:55;96563.50;;;9.45;100.00
58385;BME280;44185;47.844;8.966;2023-05-02T07:34:21;96560.00;;;9.33;100.00
58385;BME280;44185;47.844;8.966;2023-05-02T07:36:46;96576.00;;;9.43;100.00
58385;BME280;44185;47.844;8.966;2023-05-02T07:39:11;96573.75;;;9.50;100.00
58385;BME280;44185;47.844;8.966;2023-05-02T07:41:38;96575.03;;;9.44;100.00
58385;BME280;44185;47.844;8.966;2023-05-02T07:44:04;96575.22;;;9.29;100.00
58385;BME280;44185;47.844;8.966;2023-05-02T07:46:29;96575.03;;;9.55;100.00
58385;BME280;44185;47.844;8.966;2023-05-02T07:48:54;96578.44;;;9.69;100.00
58385;BME280;44185;47.844;8.966;2023-05-02T07:51:20;96573.41;;;9.77;100.00
58385;BME280;44185;47.844;8.966;2023-05-02T07:53:45;96577.97;;;9.87;100.00
58385;BME280;44185;47.844;8.966;2023-05-02T07:56:11;96587.47;;;9.89;100.00
58385;BME280;44185;47.844;8.966;2023-05-02T07:58:38;96579.19;;;9.94;100.00
58385;BME280;44185;47.844;8.966;2023-05-02T08:01:03;96579.28;;;9.93;100.00
58385;BME280;44185;47.844;8.966;2023-05-02T08:03:29;96583.03;;;9.78;100.00
58385;BME280;44185;47.844;8.966;2023-05-02T08:05:54;96582.16;;;9.78;100.00
58385;BME280;44185;47.844;8.966;2023-05-02T08:08:19;96592.72;;;9.66;100.00
58385;BME280;44185;47.844;8.966;2023-05-02T08:10:46;96589.34;;;9.64;100.00
58385;BME280;44185;47.844;8.966;2023-05-02T08:13:12;96584.31;;;9.73;100.00
58385;BME280;44185;47.844;8.966;2023-05-02T08:15:38;96589.75;;;9.71;100.00
58385;BME280;44185;47.844;8.966;2023-05-02T08:18:04;96601.53;;;9.78;100.00
58385;BME280;44185;47.844;8.966;2023-05-02T08:20:29;96595.50;;;9.88;100.00
58385;BME280;44185;47.844;8.966;2023-05-02T08:22:55;96602.97;;;9.94;100.00
58385;BME280;44185;47.844;8.966;2023-05-02T08:25:20;96603.09;;;9.81;100.00
58385;BME280;44185;47.844;8.966;2023-05-02T08:27:46;96609.09;;;9.83;100.00
58385;BME280;44185;47.844;8.966;2023-05-02T08:30:12;96596.00;;;9.82;100.00
58385;BME280;44185;47.844;8.966;2023-05-02T08:32:39;96605.25;;;9.99;100.00
58385;BME280;44185;47.844;8.966;2023-05-02T08:35:05;96608.88;;;9.98;100.00
58385;BME280;44185;47.844;8.966;2023-05-02T08:37:30;96608.00;;;10.09;100.00
58385;BME280;44185;47.844;8.966;2023-05-02T08:39:56;96606.72;;;10.03;100.00
58385;BME280;44185;47.844;8.966;2023-05-02T08:42:22;96609.56;;;10.11;100.00
58385;BME280;44185;47.844;8.966;2023-05-02T08:44:48;96608.63;;;10.12;100.00
58385;BME280;44185;47.844;8.966;2023-05-02T08:47:14;96610.91;;;10.29;100.00
58385;BME280;44185;47.844;8.966;2023-05-02T08:49:41;96613.75;;;10.49;100.00
58385;BME280;44185;47.844;8.966;2023-05-02T08:52:08;96610.16;;;10.50;100.00
58385;BME280;44185;47.844;8.966;2023-05-02T08:54:36;96609.81;;;10.43;100.00
58385;BME280;44185;47.844;8.966;2023-05-02T08:57:02;96608.72;;;10.57;100.00
58385;BME280;44185;47.844;8.966;2023-05-02T08:59:29;96616.19;;;10.63;100.00
58385;BME280;44185;47.844;8.966;2023-05-02T09:01:58;96621.25;;;10.66;100.00
58385;BME280;44185;47.844;8.966;2023-05-02T09:04:29;96608.88;;;10.88;100.00
58385;BME280;44185;47.844;8.966;2023-05-02T09:06:56;96612.28;;;10.90;100.00
58385;BME280;44185;47.844;8.966;2023-05-02T09:09:22;96616.66;;;11.01;100.00
58385;BME280;44185;47.844;8.966;2023-05-02T09:11:48;96617.63;;;11.12;100.00
58385;BME280;44185;47.844;8.966;2023-05-02T09:14:15;96625.84;;;11.30;100.00
58385;BME280;44185;47.844;8.966;2023-05-02T09:16:40;96622.59;;;11.60;100.00
58385;BME280;44185;47.844;8.966;2023-05-02T09:19:06;96618.78;;;11.84;100.00
58385;BME280;44185;47.844;8.966;2023-05-02T09:21:35;96624.00;;;11.64;100.00
58385;BME280;44185;47.844;8.966;2023-05-02T09:24:16;96629.28;;;11.64;100.00
58385;BME280;44185;47.844;8.966;2023-05-02T09:26:43;96625.03;;;11.51;100.00
58385;BME280;44185;47.844;8.966;2023-05-02T09:29:20;96637.28;;;11.74;100.00
58385;BME280;44185;47.844;8.966;2023-05-02T09:31:46;96625.56;;;11.98;100.00
58385;BME280;44185;47.844;8.966;2023-05-02T09:34:12;96634.16;;;12.11;100.00
58385;BME280;44185;47.844;8.966;2023-05-02T09:36:39;96637.38;;;12.37;100.00
58385;BME280;44185;47.844;8.966;2023-05-02T09:39:09;96628.09;;;12.62;100.00
58385;BME280;44185;47.844;8.966;2023-05-02T09:41:38;96625.22;;;12.34;100.00
58385;BME280;44185;47.844;8.966;2023-05-02T09:44:08;96625.78;;;12.79;100.00
58385;BME280;44185;47.844;8.966;2023-05-02T09:46:38;96625.34;;;12.84;100.00
58385;BME280;44185;47.844;8.966;2023-05-02T09:49:04;96628.16;;;13.22;100.00
58385;BME280;44185;47.844;8.966;2023-05-02T09:51:29;96630.13;;;13.50;100.00
58385;BME280;44185;47.844;8.966;2023-05-02T09:53:55;96624.69;;;13.31;100.00
58385;BME280;44185;47.844;8.966;2023-05-02T09:56:21;96617.69;;;13.60;100.00
58385;BME280;44185;47.844;8.966;2023-05-02T09:58:47;96630.56;;;13.25;100.00
58385;BME280;44185;47.844;8.966;2023-05-02T10:01:16;96629.59;;;13.26;100.00
58385;BME280;44185;47.844;8.966;2023-05-02T10:03:45;96631.25;;;13.27;100.00
58385;BME280;44185;47.844;8.966;2023-05-02T10:06:11;96622.47;;;13.66;100.00
58385;BME280;44185;47.844;8.966;2023-05-02T10:08:38;96635.72;;;13.56;100.00
58385;BME280;44185;47.844;8.966;2023-05-02T10:11:07;96626.22;;;13.44;100.00
58385;BME280;44185;47.844;8.966;2023-05-02T10:13:35;96625.25;;;13.65;100.00
58385;BME280;44185;47.844;8.966;2023-05-02T10:16:03;96625.66;;;13.70;98.60
58385;BME280;44185;47.844;8.966;2023-05-02T10:18:32;96623.59;;;13.64;100.00
58385;BME280;44185;47.844;8.966;2023-05-02T10:21:06;96626.34;;;13.72;100.00
58385;BME280;44185;47.844;8.966;2023-05-02T10:23:32;96623.88;;;13.61;100.00
58385;BME280;44185;47.844;8.966;2023-05-02T10:25:58;96625.66;;;13.50;98.00
58385;BME280;44185;47.844;8.966;2023-05-02T10:28:25;96628.31;;;13.50;100.00
58385;BME280;44185;47.844;8.966;2023-05-02T10:30:52;96637.16;;;13.51;100.00
58385;BME280;44185;47.844;8.966;2023-05-02T10:33:19;96626.09;;;13.16;100.00
58385;BME280;44185;47.844;8.966;2023-05-02T10:35:45;96624.66;;;12.92;100.00
58385;BME280;44185;47.844;8.966;2023-05-02T10:38:11;96625.59;;;12.71;100.00
58385;BME280;44185;47.844;8.966;2023-05-02T10:40:37;96623.75;;;12.61;100.00
58385;BME280;44185;47.844;8.966;2023-05-02T10:43:04;96630.81;;;12.41;100.00
58385;BME280;44185;47.844;8.966;2023-05-02T10:45:31;96632.00;;;12.27;100.00
58385;BME280;44185;47.844;8.966;2023-05-02T10:48:14;96620.66;;;11.93;100.00
58385;BME280;44185;47.844;8.966;2023-05-02T10:50:47;96628.13;;;11.78;100.00
58385;BME280;44185;47.844;8.966;2023-05-02T10:53:23;96637.09;;;11.65;100.00
58385;BME280;44185;47.844;8.966;2023-05-02T10:56:11;96639.41;;;11.37;100.00
58385;BME280;44185;47.844;8.966;2023-05-02T10:58:37;96632.44;;;11.36;100.00
58385;BME280;44185;47.844;8.966;2023-05-02T11:01:35;96631.44;;;11.49;100.00
58385;BME280;44185;47.844;8.966;2023-05-02T11:04:03;96639.03;;;11.42;100.00
58385;BME280;44185;47.844;8.966;2023-05-02T11:06:29;96637.16;;;10.99;100.00
58385;BME280;44185;47.844;8.966;2023-05-02T11:09:31;96629.09;;;11.01;100.00
58385;BME280;44185;47.844;8.966;2023-05-02T11:11:57;96632.94;;;10.97;100.00
58385;BME280;44185;47.844;8.966;2023-05-02T11:14:47;96627.69;;;10.85;100.00
58385;BME280;44185;47.844;8.966;2023-05-02T11:17:12;96628.25;;;11.00;100.00
58385;BME280;44185;47.844;8.966;2023-05-02T11:25:36;96628.53;;;11.19;100.00
58385;BME280;44185;47.844;8.966;2023-05-02T11:28:05;96637.03;;;11.34;100.00
58385;BME280;44185;47.844;8.966;2023-05-02T11:30:38;96623.03;;;11.43;100.00
58385;BME280;44185;47.844;8.966;2023-05-02T11:33:15;96613.97;;;11.46;100.00
58385;BME280;44185;47.844;8.966;2023-05-02T11:35:41;96616.00;;;11.21;100.00
58385;BME280;44185;47.844;8.966;2023-05-02T11:38:10;96621.97;;;11.01;100.00
58385;BME280;44185;47.844;8.966;2023-05-02T11:40:36;96615.56;;;10.83;100.00
58385;BME280;44185;47.844;8.966;2023-05-02T11:43:11;96614.94;;;10.90;100.00
58385;BME280;44185;47.844;8.966;2023-05-02T11:45:37;96613.53;;;11.08;100.00
58385;BME280;44185;47.844;8.966;2023-05-02T11:48:03;96618.91;;;11.18;100.00
58385;BME280;44185;47.844;8.966;2023-05-02T11:50:29;96620.72;;;11.17;100.00
58385;BME280;44185;47.844;8.966;2023-05-02T11:52:55;96623.38;;;11.17;100.00
58385;BME280;44185;47.844;8.966;2023-05-02T11:55:22;96619.31;;;11.34;100.00
58385;BME280;44185;47.844;8.966;2023-05-02T11:57:47;96618.53;;;11.65;100.00
58385;BME280;44185;47.844;8.966;2023-05-02T12:00:13;96622.03;;;11.87;100.00
58385;BME280;44185;47.844;8.966;2023-05-02T12:02:40;96622.88;;;11.88;100.00
58385;BME280;44185;47.844;8.966;2023-05-02T12:05:07;96626.84;;;11.72;100.00
58385;BME280;44185;47.844;8.966;2023-05-02T12:07:36;96625.38;;;11.89;100.00
58385;BME280;44185;47.844;8.966;2023-05-02T12:10:02;96623.38;;;11.82;100.00
58385;BME280;44185;47.844;8.966;2023-05-02T12:12:30;96633.25;;;11.70;100.00
58385;BME280;44185;47.844;8.966;2023-05-02T12:14:55;96626.75;;;11.84;100.00
58385;BME280;44185;47.844;8.966;2023-05-02T12:17:21;96626.69;;;11.95;100.00
58385;BME280;44185;47.844;8.966;2023-05-02T12:19:47;96628.69;;;11.82;100.00
58385;BME280;44185;47.844;8.966;2023-05-02T12:22:13;96626.75;;;11.84;100.00
58385;BME280;44185;47.844;8.966;2023-05-02T12:24:39;96622.63;;;11.91;100.00
58385;BME280;44185;47.844;8.966;2023-05-02T12:27:09;96626.16;;;12.01;100.00
58385;BME280;44185;47.844;8.966;2023-05-02T12:29:39;96627.16;;;12.32;100.00
58385;BME280;44185;47.844;8.966;2023-05-02T12:32:05;96625.38;;;12.42;100.00
58385;BME280;44185;47.844;8.966;2023-05-02T12:34:31;96621.75;;;12.43;100.00
58385;BME280;44185;47.844;8.966;2023-05-02T12:36:57;96611.84;;;12.55;100.00
58385;BME280;44185;47.844;8.966;2023-05-02T12:39:33;96613.63;;;12.96;100.00
58385;BME280;44185;47.844;8.966;2023-05-02T12:41:58;96606.06;;;13.51;100.00
58385;BME280;44185;47.844;8.966;2023-05-02T12:44:34;96618.22;;;13.84;100.00
58385;BME280;44185;47.844;8.966;2023-05-02T12:47:01;96615.66;;;14.02;100.00
58385;BME280;44185;47.844;8.966;2023-05-02T12:49:27;96607.94;;;14.37;100.00
58385;BME280;44185;47.844;8.966;2023-05-02T12:51:52;96610.47;;;14.95;100.00
58385;BME280;44185;47.844;8.966;2023-05-02T12:54:21;96615.56;;;14.78;100.00
58385;BME280;44185;47.844;8.966;2023-05-02T12:56:47;96610.53;;;15.22;98.26
58385;BME280;44185;47.844;8.966;2023-05-02T12:59:27;96612.91;;;15.25;92.75
58385;BME280;44185;47.844;8.966;2023-05-02T13:01:53;96611.38;;;15.41;88.90
58385;BME280;44185;47.844;8.966;2023-05-02T13:04:20;96616.16;;;15.37;92.27